Decoded Metar for OIKB (BANDAR ABBAS in IRAN) (IATA:BND) | Meteo·Mobile Aviation Weather
aviador You're here:

OIKB Decoded Metar

BANDAR ABBAS in IRAN
Report Time2019-04-23 08:00:00
UTC Time2019-04-23 08:30:16
Flight Rules mvfr MVFR
Wind200° at 10 kt
W.Decomp.*RWY 21: 9.8 kt HW 1.9 kt LCW
Visibility5000 m
Phenomena:Haze
Clouds:Few 030 Hf
Expected CloudBase > 3,600 ft AGL from Temp-Dew spread
CeilingNone
Temp32°C (ISA +17)
Dew Point23°C (59% RH)
Heat Index36.8°C
QNH1009 hPa
Density Alt2,484 ft
Elevation33 ft
Report Wrong Elevation
Raw Report
METAR OIKB 230800Z 20010KT 5000 HZ FEW030 32/23 Q1009 A2980 NOSIG=

Extra information for OIKB:More info

Metar Taf Metar & Taf Last 4 Metars F.Rules Stats Wind Profile Meteogram Temp Stats Airport Information Weather charts Add Link Nearby VenuesMetar ALERT Operation Metar Decoded Social comments